Potsdam, NY

8:03 PM EDT on September 21, 2014 (GMT -0400)
ERC, Clarkson Campus | Change Station
CLOSE
Current Station
Personal Weather Station
Location: Potsdam, NY
Elevation: 479 ft
Nearby Weather Stations

Elev 479 ft 44.66 °N, 75.00 °W | Updated 13 minutes ago

Mostly Cloudy
Mostly Cloudy
65.1 °F
Feels Like 65.1 °F
N
4.0
Wind Variable Wind from SSE
Gusts 8.0 mph

Today
High -- | Low -- °F
--% Chance of Precip.
Yesterday
High -- | Low -- °F
Precip. -- in
6:45 AM 6:59 PM
Waning Crescent, 5% visible
Pressure 29.54 in
Visibility 10.0 miles
Clouds Clear
Dew Point 62 °F
Humidity 88%
Rainfall 0.19 in
Snow Depth Not available.
UV 0.0 out of 12
Pollen .40 out of 12
Air Quality Not available.
Flu Activity Not available.
METAR KMSS 212353Z AUTO 20009KT 10SM CLR 19/17 A2954 RMK AO2 SLP002 60000 T01890167 10250 20189 53009

More Conditions Fewer Conditions

Pressure 29.54 in
Visibility 10.0 miles
Clouds Clear
Dew Point 62 °F
Humidity 88%
Rainfall 0.19 in
Snow Depth Not available.
UV 0.0 out of 12
Pollen .40 out of 12
Air Quality Not available.
Flu Activity Not available.
METAR KMSS 212353Z AUTO 20009KT 10SM CLR 19/17 A2954 RMK AO2 SLP002 60000 T01890167 10250 20189 53009

More Conditions Fewer Conditions

10-Day Weather Forecast

Almanac

Astronomy

Sep. 21, 2014 Rise Set
Actual Time 6:45 AM EDT 6:59 PM EDT
Civil Twilight 6:16 AM EDT 7:28 PM EDT
Nautical Twilight 5:42 AM EDT 8:02 PM EDT
Astronomical Twilight 5:07 AM EDT 8:37 PM EDT
Moon 4:12 AM EDT (9/21) 5:37 PM EDT (9/21)
Length of Visible Light 13h 11m
Length of Day
12h 13m
Tomorrow will be 3m 4s shorter.
Waning Crescent, 5% of the Moon is Illuminated
Today
Waning Crescent
Sep 24
New
Oct 1
First Quarter
Oct 8
Full
Oct 15
Last Quarter

Today's Extremes

State Highs State Lows

Community

WunderPhotos

Upload Photos

1,755,309 photos uploaded!

WunderBlogs® & News

Nearby

Air Quality

  Air Quality AQ Index Pollutant
Sunday Good
OZONE
Sunday Good
PM2.5
Monday Good
OZONE
Monday Good
PM2.5

Snow Depth

Station Depth Elevation
No new snow has been reported.

Earthquake Activity

City Distance Mag. Time & Date
No recent earthquake activity has been reported nearby.
Minimum magnitude displayed is 2.5.

Coastal Water Temperatures

Place Temperature
Ogdensburg, NY 64.9 °F
Alexandria Bay, NY 64.9 °F

Nearby Weather Stations